Latest Weather Observations for Wilcannia Airport

IDN60801

Issued at 11:33 am EST Saturday 30 July 2016 (issued every 30 minutes, with the page automatically refreshed every 10 minutes)

About weather observations | Map of weather stations | Latest weather observations for NSW | Other Formats
Station Details ID: 046012 Name: WILCANNIA AERODROME AWS Lat: -31.52 Lon: 143.38 Height: 94.3 m
Data from the previous 72 hours. | See also: Recent months at Wilcannia Airport
Date/Time
EST
Temp
°C
App
Temp
°C
Dew
Point
°C
Rel
Hum
%
Delta-T
°C
Wind Press
QNH
hPa
Press
MSL
hPa
Rain since
9am
mm
Dir  Spd
km/h
Gust
km/h
Spd
kts
Gust
kts
30/11:30am 14.9 12.3 7.9 63 3.5 N 11 19 6 10 1023.7 1023.9 0.0
30/11:00am 13.6 11.0 7.6 67 2.9 NNE 11 17 6 9 1023.8 1024.0 0.0
30/10:30am 12.3 9.3 7.8 74 2.2 NE 13 17 7 9 1024.1 1024.2 0.0
30/10:00am 11.2 8.6 7.7 79 1.7 NE 11 15 6 8 1024.4 1024.5 0.0
30/09:30am 10.7 8.1 7.8 82 1.4 NE 11 13 6 7 1024.2 1024.3 0.0
30/09:00am 9.8 7.9 7.4 85 1.1 NE 7 11 4 6 1024.3 1024.4 0.0
30/08:30am 7.5 5.0 6.6 94 0.4 NE 9 11 5 6 1024.0 1024.1 0.0
30/08:00am 5.2 1.9 4.6 96 0.3 NE 11 13 6 7 1024.2 1024.3 0.0
30/07:30am 3.6 0.0 2.9 95 0.3 NE 11 13 6 7 1024.1 1024.2 0.0
30/07:00am 2.6 -1.2 1.7 94 0.3 NE 11 13 6 7 1023.7 1023.9 0.0
30/06:30am 2.7 -0.7 1.8 94 0.4 ENE 9 11 5 6 1023.5 1023.7 0.0
30/06:00am 3.7 -0.3 3.0 95 0.3 ENE 13 15 7 8 1023.1 1023.3 0.0
30/05:30am 3.2 -0.5 2.2 93 0.4 E 11 13 6 7 1023.0 1023.2 0.0
30/05:00am 4.2 0.3 3.5 95 0.3 N 13 13 7 7 1022.8 1023.0 0.0
30/04:30am 3.1 -0.3 2.1 93 0.4 NNW 9 9 5 5 1023.2 1023.4 0.0
30/04:00am 3.8 0.6 2.9 94 0.4 NNW 9 11 5 6 1023.0 1023.2 0.0
30/03:30am 3.4 0.1 2.2 92 0.5 NNW 9 11 5 6 1023.2 1023.4 0.0
30/03:00am 3.6 0.8 2.3 91 0.5 NNW 6 7 3 4 1023.4 1023.6 0.0
30/02:30am 4.9 1.5 3.9 93 0.4 N 11 13 6 7 1023.4 1023.6 0.0
30/02:00am 4.9 1.1 3.9 93 0.4 N 13 13 7 7 1023.5 1023.7 0.0
30/01:30am 4.6 1.5 3.4 92 0.5 NE 9 11 5 6 1024.1 1024.2 0.0
30/01:00am 4.8 1.3 3.5 91 0.5 NE 11 13 6 7 1024.0 1024.1 0.0
30/12:30am 5.2 1.4 3.7 90 0.6 ENE 13 13 7 7 1024.2 1024.3 0.0
30/12:00am 6.3 2.7 4.9 91 0.6 NE 13 15 7 8 1024.2 1024.3 0.0
 
Date/Time
EST
Temp
°C
App
Temp
°C
Dew
Point
°C
Rel
Hum
%
Delta-T
°C
Wind Press
QNH
hPa
Press
MSL
hPa
Rain since
9am
mm
Dir  Spd
km/h
Gust
km/h
Spd
kts
Gust
kts
29/11:30pm 5.6 2.1 3.6 87 0.8 NNE 11 13 6 7 1024.5 1024.6 0.0
29/11:00pm 6.0 2.6 4.2 88 0.8 NNE 11 11 6 6 1024.5 1024.6 0.0
29/10:30pm 7.1 3.6 5.3 88 0.8 NNE 13 13 7 7 1024.5 1024.6 0.0
29/10:00pm 7.3 4.2 5.4 88 0.8 NE 11 13 6 7 1024.6 1024.7 0.0
29/09:30pm 7.1 3.9 5.3 88 0.8 NE 11 13 6 7 1024.7 1024.8 0.0
29/09:00pm 7.2 4.4 5.2 87 0.9 NE 9 11 5 6 1024.4 1024.5 0.0
29/08:30pm 7.9 4.7 5.2 83 1.2 NE 11 13 6 7 1024.2 1024.3 0.0
29/08:00pm 8.0 4.9 5.6 85 1.1 ENE 11 15 6 8 1024.1 1024.2 0.0
29/07:30pm 8.0 5.2 5.1 82 1.3 ENE 9 11 5 6 1024.1 1024.2 0.0
29/07:00pm 8.9 6.1 5.3 78 1.6 ENE 9 11 5 6 1024.0 1024.1 0.0
29/06:30pm 10.9 7.6 6.3 73 2.2 ENE 13 15 7 8 1023.5 1023.7 0.0
29/06:00pm 12.1 11.1 5.5 64 3.1 CALM 0 0 0 0 1023.7 1023.9 0.0
29/05:30pm 14.9 13.9 5.7 54 4.4 CALM 0 0 0 0 1023.1 1023.3 0.0
29/05:00pm 16.3 15.0 5.9 50 5.0 NNE 2 6 1 3 1023.2 1023.4 0.0
29/04:30pm 16.2 15.2 5.8 50 5.0 CALM 0 4 0 2 1023.1 1023.3 0.0
29/04:00pm 16.3 14.2 5.6 49 5.1 SW 6 13 3 7 1023.7 1023.9 0.0
29/03:30pm 16.4 13.4 6.0 50 5.1 WSW 11 17 6 9 1023.8 1024.0 0.0
29/03:00pm 16.1 13.9 6.0 51 4.9 S 7 11 4 6 1024.0 1024.1 0.0
29/02:30pm 15.8 13.3 6.5 54 4.6 WNW 9 13 5 7 1024.1 1024.2 0.0
29/02:00pm 15.8 13.2 6.3 53 4.6 WSW 9 13 5 7 1024.4 1024.5 0.0
29/01:30pm 15.5 12.9 6.0 53 4.6 NW 9 15 5 8 1024.7 1024.8 0.0
29/01:00pm 14.9 12.8 5.7 54 4.4 WNW 6 11 3 6 1025.2 1025.3 0.0
29/12:30pm 14.3 12.3 6.2 58 3.9 NNE 6 13 3 7 1025.7 1025.8 0.0
29/12:00pm 13.8 10.8 5.9 59 3.7 NNE 11 15 6 8 1026.4 1026.5 0.0
29/11:30am 13.4 10.5 6.3 62 3.4 NE 11 15 6 8 1026.9 1027.0 0.0
29/11:00am 12.8 9.2 6.6 66 3.0 NE 15 19 8 10 1027.3 1027.4 0.0
29/10:30am 11.5 7.8 6.4 71 2.4 NE 15 19 8 10 1027.7 1027.8 0.0
29/10:00am 10.2 6.4 5.8 74 2.0 NE 15 20 8 11 1027.7 1027.8 0.0
29/09:30am 9.3 6.3 6.0 80 1.5 NE 11 15 6 8 1027.8 1027.9 0.0
29/09:00am 8.3 5.7 6.1 86 1.0 ENE 9 13 5 7 1027.8 1027.9 0.0
29/08:30am 6.9 4.7 6.3 96 0.3 E 7 9 4 5 1027.9 1028.0 0.0
29/08:00am 4.2 1.1 3.6 96 0.2 E 9 11 5 6 1027.5 1027.6 0.0
29/07:30am 1.4 -2.2 0.5 94 0.3 SE 9 9 5 5 1027.5 1027.6 0.0
29/07:00am 1.3 -2.3 0.4 94 0.3 SSE 9 9 5 5 1027.4 1027.5 0.0
29/06:30am 1.2 -2.1 0.0 92 0.4 SSW 7 7 4 4 1027.0 1027.1 0.0
29/06:00am 2.0 -1.2 1.0 93 0.4 SW 7 9 4 5 1026.8 1026.9 0.0
29/05:30am 2.5 0.3 1.3 92 0.5 NNE 2 9 1 5 1026.7 1026.8 0.0
29/05:00am 2.8 1.0 1.2 89 0.6 CALM 0 0 0 0 1026.4 1026.5 0.0
29/04:30am 4.0 1.0 2.2 88 0.7 NE 7 11 4 6 1026.3 1026.4 0.0
29/04:00am 5.2 1.0 3.9 91 0.5 NE 15 15 8 8 1026.2 1026.3 0.0
29/03:30am 5.1 1.3 3.8 91 0.5 NE 13 13 7 7 1026.3 1026.4 0.0
29/03:00am 4.9 1.1 4.0 94 0.4 NE 13 13 7 7 1026.4 1026.5 0.0
29/02:30am 3.8 -0.2 2.8 93 0.4 NNE 13 13 7 7 1026.5 1026.6 0.0
29/02:00am 3.6 -0.1 2.6 93 0.4 NNE 11 13 6 7 1026.8 1026.9 0.0
29/01:30am 3.9 0.7 2.9 93 0.4 NNE 9 11 5 6 1026.9 1027.0 0.0
29/01:00am 3.4 0.4 2.1 91 0.5 ENE 7 9 4 5 1027.0 1027.1 0.0
29/12:30am 3.9 0.6 2.7 92 0.5 ENE 9 9 5 5 1026.9 1027.0 0.0
29/12:00am 3.6 0.3 2.3 91 0.5 ENE 9 11 5 6 1027.1 1027.2 0.0
 
Date/Time
EST
Temp
°C
App
Temp
°C
Dew
Point
°C
Rel
Hum
%
Delta-T
°C
Wind Press
QNH
hPa
Press
MSL
hPa
Rain since
9am
mm
Dir  Spd
km/h
Gust
km/h
Spd
kts
Gust
kts
28/11:30pm 3.5 0.4 1.5 87 0.8 E 7 9 4 5 1027.2 1027.3 0.0
28/11:00pm 5.1 2.5 3.1 87 0.8 SE 6 7 3 4 1027.5 1027.6 0.0
28/10:30pm 5.6 2.4 3.1 84 1.0 SE 9 11 5 6 1027.6 1027.7 0.0
28/10:00pm 6.3 2.4 3.6 83 1.1 SE 13 13 7 7 1027.7 1027.8 0.0
28/09:30pm 7.1 3.7 4.1 81 1.3 SSE 11 13 6 7 1028.0 1028.1 0.0
28/09:00pm 7.4 3.6 4.0 79 1.5 SSE 13 13 7 7 1028.1 1028.2 0.0
28/08:30pm 8.1 4.4 4.3 77 1.7 S 13 13 7 7 1028.1 1028.2 0.0
28/08:00pm 8.5 4.8 4.5 76 1.8 S 13 15 7 8 1028.0 1028.1 0.0
28/07:30pm 8.7 5.0 4.5 75 1.9 S 13 15 7 8 1027.7 1027.8 0.0
28/07:00pm 8.9 5.6 4.3 73 2.0 S 11 13 6 7 1027.4 1027.5 0.0
28/06:30pm 9.4 6.0 4.0 69 2.4 S 11 13 6 7 1027.2 1027.3 0.0
28/06:00pm 10.9 7.6 4.4 64 2.9 S 11 11 6 6 1027.1 1027.2 0.0
28/05:30pm 12.9 9.6 4.8 58 3.7 S 11 13 6 7 1026.7 1026.8 0.0
28/05:00pm 14.2 10.6 4.8 53 4.4 SSW 13 19 7 10 1026.5 1026.6 0.0
28/04:30pm 14.8 11.2 4.8 51 4.7 SSW 13 19 7 10 1026.6 1026.7 0.0
28/04:00pm 15.6 11.9 4.3 47 5.2 WSW 13 17 7 9 1026.8 1026.9 0.0
28/03:30pm 15.5 12.2 4.8 49 5.0 SSW 11 20 6 11 1027.2 1027.3 0.0
28/03:00pm 15.2 11.6 4.9 50 4.8 SSW 13 19 7 10 1027.5 1027.6 0.0
28/02:30pm 15.2 12.0 4.9 50 4.9 SW 11 19 6 10 1027.5 1027.6 0.0
28/02:00pm 14.9 11.7 5.1 52 4.6 SW 11 19 6 10 1027.8 1027.9 0.0
28/01:30pm 14.9 11.7 5.1 52 4.6 WSW 11 17 6 9 1028.4 1028.5 0.0
28/01:00pm 14.5 12.0 4.8 52 4.5 SW 7 19 4 10 1028.8 1028.9 0.0
28/12:30pm 13.8 10.5 4.4 53 4.3 SSW 11 13 6 7 1029.3 1029.4 0.0
28/12:00pm 13.9 11.0 4.5 53 4.3 SSE 9 17 5 9 1030.0 1030.1 0.0
28/11:30am 13.2 10.6 4.1 54 4.2 S 7 11 4 6 1030.3 1030.4 0.0
28/11:00am 13.3 10.8 5.0 57 3.8 SE 7 11 4 6 1030.5 1030.6 0.0
28/10:30am 12.2 9.8 5.1 62 3.3 SE 7 13 4 7 1030.6 1030.7 0.0
28/10:00am 11.4 8.4 6.1 70 2.5 SSE 11 13 6 7 1030.6 1030.7 0.0
28/09:30am 9.9 6.7 5.3 73 2.1 SSE 11 13 6 7 1030.4 1030.5 0.0
28/09:00am 7.8 5.4 5.1 83 1.2 SSW 7 11 4 6 1030.5 1030.6 0.0
28/08:30am 5.8 2.8 4.1 89 0.7 SW 9 11 5 6 1030.2 1030.3 0.0
28/08:00am 4.3 0.8 3.3 93 0.4 WSW 11 13 6 7 1029.7 1029.8 0.0
28/07:30am 3.2 -0.5 2.2 93 0.4 WSW 11 13 6 7 1029.4 1029.5 0.0
28/07:00am 3.1 -0.6 2.1 93 0.4 WSW 11 13 6 7 1029.1 1029.2 0.0
28/06:30am 3.3 -0.8 2.3 93 0.4 WSW 13 17 7 9 1028.6 1028.7 0.0
28/06:00am 3.0 -0.4 2.0 93 0.4 WSW 9 11 5 6 1028.4 1028.5 0.0
28/05:30am 3.1 -0.3 1.9 92 0.5 WSW 9 11 5 6 1027.9 1028.0 0.0
28/05:00am 3.1 -0.3 1.8 91 0.5 SSW 9 11 5 6 1027.6 1027.7 0.0
28/04:30am 3.4 -0.3 2.1 91 0.5 SW 11 15 6 8 1027.3 1027.4 0.0
28/04:00am 3.7 0.8 2.4 91 0.5 WSW 7 9 4 5 1027.4 1027.5 0.0
28/03:30am 3.8 0.5 2.2 89 0.6 SW 9 9 5 5 1027.1 1027.2 0.0
28/03:00am 4.4 0.8 2.9 90 0.6 SW 11 13 6 7 1027.1 1027.2 0.0
28/02:30am 4.1 0.8 2.6 90 0.6 W 9 11 5 6 1027.2 1027.3 0.0
28/02:00am 4.4 1.2 2.8 89 0.6 WSW 9 9 5 5 1027.3 1027.4 0.0
28/01:30am 4.9 1.8 3.4 90 0.6 WSW 9 11 5 6 1027.4 1027.5 0.0
28/01:00am 4.7 1.5 2.9 88 0.7 W 9 11 5 6 1027.5 1027.6 0.0
28/12:30am 5.1 1.9 3.1 87 0.8 WSW 9 11 5 6 1027.6 1027.7 0.0
28/12:00am 5.2 2.4 3.1 86 0.9 SW 7 9 4 5 1027.5 1027.6 0.0
 
Date/Time
EST
Temp
°C
App
Temp
°C
Dew
Point
°C
Rel
Hum
%
Delta-T
°C
Wind Press
QNH
hPa
Press
MSL
hPa
Rain since
9am
mm
Dir  Spd
km/h
Gust
km/h
Spd
kts
Gust
kts
27/11:30pm 5.5 2.7 3.0 84 1.0 SW 7 9 4 5 1027.6 1027.7 0.0
27/11:00pm 6.0 2.8 2.8 80 1.3 SSW 9 9 5 5 1027.5 1027.6 0.0
27/10:30pm 7.5 4.4 3.4 75 1.8 SW 9 11 5 6 1027.3 1027.4 0.0
27/10:00pm 9.0 5.6 4.0 71 2.2 S 11 15 6 8 1027.1 1027.2 0.0
27/09:30pm 9.1 5.3 3.7 69 2.4 S 13 17 7 9 1026.9 1027.0 0.0
27/09:00pm 10.5 6.3 4.0 64 2.9 SSW 15 19 8 10 1026.9 1027.0 0.0
27/08:30pm 11.6 7.2 4.8 63 3.1 SSW 17 22 9 12 1026.7 1026.8 0.0
27/08:00pm 12.2 7.9 5.4 63 3.1 SSW 17 20 9 11 1026.2 1026.3 0.0
27/07:30pm 12.6 8.0 5.5 62 3.3 SSW 19 24 10 13 1025.9 1026.0 0.0
27/07:00pm 12.9 8.5 4.8 58 3.7 SW 17 22 9 12 1025.4 1025.5 0.0
27/06:30pm 13.1 8.9 5.8 61 3.5 SW 17 24 9 13 1024.9 1025.0 0.0
27/06:00pm 13.3 8.5 5.5 59 3.7 SW 20 28 11 15 1024.4 1024.5 0.0
27/05:30pm 13.6 8.4 5.5 58 3.8 SW 22 30 12 16 1023.8 1024.0 0.0
27/05:00pm 14.2 9.5 6.1 58 3.9 SW 20 30 11 16 1023.4 1023.6 0.0
27/04:30pm 14.4 9.2 5.7 56 4.1 SW 22 30 12 16 1022.9 1023.1 0.0
27/04:00pm 16.2 11.5 6.1 51 4.9 WSW 20 28 11 15 1022.5 1022.7 0.0
27/03:30pm 16.5 11.4 6.1 50 5.1 WSW 22 28 12 15 1022.2 1022.3 0.0
27/03:00pm 16.1 11.7 6.5 53 4.7 WSW 19 24 10 13 1022.0 1022.1 0.0
27/02:30pm 15.1 9.9 5.6 53 4.5 SW 22 33 12 18 1021.9 1022.0 0.0
27/02:00pm 14.7 9.6 6.0 56 4.2 SW 22 32 12 17 1022.0 1022.1 0.0
27/01:30pm 15.6 10.5 6.1 53 4.6 SW 22 30 12 16 1021.8 1021.9 0.0
27/01:00pm 15.2 10.6 6.7 57 4.1 SW 20 30 11 16 1022.0 1022.1 0.0
27/12:30pm 15.0 10.5 6.0 55 4.3 SW 19 26 10 14 1022.1 1022.2 0.0
27/12:00pm 15.0 10.7 6.8 58 4.0 SW 19 26 10 14 1022.0 1022.1 0.0

Other Formats:

Comma delimited format used in spreadsheet applications
http://www.bom.gov.au/fwo/IDN60801/IDN60801.95695.axf

JavaScript Object Notation format (JSON) in row-major order
http://www.bom.gov.au/fwo/IDN60801/IDN60801.95695.json